ADDS METAR Data INFO
IDs: Format: Raw Decoded Include TAF

Data at: 1611 UTC 14 Aug 2018

KPUB 141553Z VRB03KT 10SM CLR 22/16 A3011 RMK AO2 SLP132 T02220156
KPUB 141453Z 00000KT 10SM CLR 20/16 A3010 RMK AO2 SLP135 T02000156 53011
KPUB 141353Z 00000KT 9SM FEW013 19/15 A3008 RMK AO2 SLP123 T01890150
KPUB 141338Z 00000KT 9SM SCT013 18/14 A3008 RMK AO2 T01780144
KPUB 141253Z 30003KT 9SM OVC014 17/14 A3007 RMK AO2 SLP120 T01670144
KPUB 141220Z 00000KT 9SM BKN014 16/14 A3007 RMK AO2 T01610139
KPUB 141153Z 02004KT 10SM BKN015 17/14 A3006 RMK AO2 SLP114 T01720144 10206 20156 53000
KPUB 141138Z AUTO 36004KT 10SM OVC015 17/14 A3006 RMK AO2 T01720144
KPUB 141118Z AUTO 01004KT 10SM BKN014 16/14 A3005 RMK AO2 T01610139
KPUB 141103Z AUTO 01006KT 10SM FEW014 16/13 A3005 RMK AO2 T01560133
KPUB 141053Z AUTO 36005KT 10SM BKN014 16/13 A3005 RMK AO2 SLP110 T01610133
KPUB 141034Z AUTO 02005KT 10SM BKN014 17/14 A3005 RMK AO2 T01670139
KPUB 141009Z AUTO 03005KT 10SM SCT014 17/14 A3005 RMK AO2 T01670139
KPUB 140953Z AUTO 03004KT 10SM BKN014 17/14 A3005 RMK AO2 SLP108 T01720139
KPUB 140944Z AUTO 02005KT 10SM BKN014 17/14 A3005 RMK AO2 T01720139
KPUB 140853Z AUTO 04006KT 10SM CLR 17/13 A3006 RMK AO2 SLP113 T01670128 58003
KPUB 140753Z AUTO 01004KT 10SM CLR 18/13 A3008 RMK AO2 SLP117 T01780133
KPUB 140653Z AUTO 03006KT 10SM CLR 19/14 A3008 RMK AO2 SLP119 T01940139 403220139
KPUB 140553Z AUTO 07009KT 10SM CLR 21/14 A3007 RMK AO2 SLP117 T02110144 10306 20211 51021
KPUB 140453Z AUTO 07010KT 10SM CLR 22/15 A3005 RMK AO2 SLP110 T02220150
KPUB 140353Z AUTO 07010KT 10SM CLR 24/14 A3003 RMK AO2 SLP104 T02390139
KPUB 140253Z AUTO 31003KT 10SM CLR 22/09 A3000 RMK AO2 SLP099 T02220094 53014
KPUB 140153Z AUTO 17003KT 10SM CLR 28/09 A2998 RMK AO2 SLP086 T02780094
KPUB 140053Z 17006KT 10SM CLR 29/09 A2996 RMK AO2 SLP085 T02940089
KPUB 132353Z 16011KT 10SM CLR 31/09 A2996 RMK AO2 SLP080 T03060089 10322 20261 56006
KPUB 132253Z 11012KT 10SM CLR 31/10 A2996 RMK AO2 SLP080 T03110100
KPUB 132153Z 11011KT 10SM CLR 32/11 A2996 RMK AO2 SLP079 T03170106
KPUB 132053Z 14007KT 110V180 10SM CLR 31/12 A2998 RMK AO2 SLP084 T03060117 56015
KPUB 131953Z 07007KT 10SM CLR 31/12 A2999 RMK AO2 SLP090 T03060117
KPUB 131853Z VRB03KT 10SM CLR 28/12 A3001 RMK AO2 SLP096 T02830117
KPUB 131753Z VRB05KT 10SM CLR 26/13 A3003 RMK AO2 SLP105 T02610133 10261 20144 58003
KPUB 131653Z VRB04KT 10SM CLR 25/13 A3003 RMK AO2 SLP104 T02500128
KPUB 131553Z 00000KT 10SM CLR 22/13 A3003 RMK AO2 SLP107 T02220128
KPUB 131453Z 33004KT 9SM CLR 21/13 A3004 RMK AO2 SLP108 T02060133 58001
KPUB 131353Z 02003KT 10SM CLR 18/13 A3004 RMK AO2 SLP113 T01830133
KPUB 131253Z AUTO 31004KT 7SM CLR 15/12 A3005 RMK AO2 SLP115 T01500122
KPUB 131153Z AUTO 00000KT 8SM CLR 15/12 A3004 RMK AO2 SLP110 T01500117 10194 20139 55004
KPUB 131053Z AUTO 27004KT 8SM CLR 14/11 A3004 RMK AO2 SLP110 T01390111
KPUB 130953Z AUTO 33005KT 9SM CLR 16/12 A3004 RMK AO2 SLP108 T01560117
KPUB 130853Z AUTO 36008KT 9SM CLR 17/12 A3005 RMK AO2 SLP110 T01720122 56015
KPUB 130753Z AUTO 36008KT 9SM CLR 17/12 A3006 RMK AO2 SLP116 T01720117
KPUB 130653Z AUTO 36009KT 9SM CLR 18/11 A3009 RMK AO2 SLP127 T01780106 403110128
KPUB 130553Z AUTO 06003KT 10SM CLR 19/10 A3010 RMK AO2 SLP133 T01940100 10300 20194 50002
KPUB 130453Z AUTO 07008KT 10SM CLR 22/10 A3011 RMK AO2 SLP132 T02170100